createdAt,value
2022-12-04T00:02:21.372Z,4.38
2022-12-04T00:05:21.387Z,4.38
2022-12-04T00:08:21.402Z,4.38
2022-12-04T00:11:21.415Z,4.38
2022-12-04T00:14:21.455Z,4.39
2022-12-04T00:17:21.448Z,4.39
2022-12-04T00:20:21.470Z,4.39
2022-12-04T00:23:21.488Z,4.39
2022-12-04T00:26:21.494Z,4.4
2022-12-04T00:29:21.518Z,4.4
2022-12-04T00:32:21.556Z,4.4
2022-12-04T00:35:21.548Z,4.4
2022-12-04T00:38:21.565Z,4.4
2022-12-04T00:41:21.593Z,4.4
2022-12-04T00:44:21.601Z,4.4
2022-12-04T00:47:21.619Z,4.4
2022-12-04T00:50:21.665Z,4.41
2022-12-04T00:53:21.655Z,4.4
2022-12-04T00:56:21.674Z,4.43
2022-12-04T00:59:21.691Z,4.4
2022-12-04T01:02:21.699Z,4.4
2022-12-04T01:05:21.712Z,4.43
2022-12-04T01:08:21.726Z,4.43
2022-12-04T01:11:21.738Z,4.43
2022-12-04T01:14:21.855Z,4.43
2022-12-04T01:17:21.760Z,4.43
2022-12-04T01:20:21.770Z,4.43
2022-12-04T01:23:21.781Z,4.42
2022-12-04T01:26:21.790Z,4.42
2022-12-04T01:29:21.799Z,4.42
2022-12-04T01:32:21.835Z,4.42
2022-12-04T01:35:21.812Z,4.45
2022-12-04T01:38:21.819Z,4.46
2022-12-04T01:41:21.824Z,4.45
2022-12-04T01:44:21.828Z,4.45
2022-12-04T01:47:21.853Z,4.45
2022-12-04T01:50:21.922Z,4.44
2022-12-04T01:53:21.844Z,4.44
2022-12-04T01:56:21.839Z,4.47
2022-12-04T01:59:21.838Z,4.44
2022-12-04T02:02:22.006Z,4.47
2022-12-04T02:05:21.854Z,4.47
2022-12-04T02:08:21.985Z,4.46
2022-12-04T02:11:21.866Z,4.46
2022-12-04T02:14:21.868Z,4.46
2022-12-04T02:17:21.874Z,4.45
2022-12-04T02:20:21.881Z,4.45
2022-12-04T02:23:21.893Z,4.44
2022-12-04T02:26:21.928Z,4.44
2022-12-04T02:29:21.918Z,4.44
2022-12-04T02:32:21.955Z,4.44
2022-12-04T02:35:21.950Z,4.44
2022-12-04T02:38:21.981Z,4.44
2022-12-04T02:41:21.980Z,4.44
2022-12-04T02:44:22.010Z,4.44
2022-12-04T02:47:21.983Z,4.44
2022-12-04T02:50:21.992Z,4.44
2022-12-04T02:53:21.980Z,4.44
2022-12-04T02:56:21.986Z,4.46
2022-12-04T02:59:21.988Z,4.46
2022-12-04T03:02:22.051Z,4.46
2022-12-04T03:05:21.984Z,4.46
2022-12-04T03:08:21.989Z,4.46
2022-12-04T03:11:21.986Z,4.46
2022-12-04T03:14:21.986Z,4.46
2022-12-04T03:17:21.993Z,4.46
2022-12-04T03:20:22.023Z,4.46
2022-12-04T03:23:21.993Z,4.46
2022-12-04T03:26:21.996Z,4.46
2022-12-04T03:29:21.995Z,4.46
2022-12-04T03:32:21.999Z,4.5
2022-12-04T03:35:21.998Z,4.5
2022-12-04T03:38:22.030Z,4.47
2022-12-04T03:41:22.000Z,4.5
2022-12-04T03:44:22.003Z,4.5
2022-12-04T03:47:21.996Z,4.5
2022-12-04T03:50:22.004Z,4.49
2022-12-04T03:53:21.999Z,4.49
2022-12-04T03:56:22.035Z,4.49
2022-12-04T03:59:22.007Z,4.49
2022-12-04T04:02:22.076Z,4.49
2022-12-04T04:05:22.009Z,4.48
2022-12-04T04:08:22.092Z,4.49
2022-12-04T04:11:22.006Z,4.48
2022-12-04T04:14:22.035Z,4.48
2022-12-04T04:17:22.008Z,4.48
2022-12-04T04:20:22.009Z,4.48
2022-12-04T04:23:22.010Z,4.48
2022-12-04T04:26:22.017Z,4.51
2022-12-04T04:29:22.016Z,4.51
2022-12-04T04:32:22.042Z,4.51
2022-12-04T04:35:22.015Z,4.51
2022-12-04T04:38:22.019Z,4.51
2022-12-04T04:41:22.023Z,4.5
2022-12-04T04:44:22.023Z,4.5
2022-12-04T04:47:22.029Z,4.5
2022-12-04T04:50:22.064Z,4.5
2022-12-04T04:53:22.036Z,4.5
2022-12-04T04:56:22.042Z,4.5
2022-12-04T04:59:22.040Z,4.47
2022-12-04T05:02:22.042Z,4.47
2022-12-04T05:05:22.041Z,4.47
2022-12-04T05:08:22.083Z,4.47
2022-12-04T05:11:22.051Z,4.47
2022-12-04T05:14:22.062Z,4.47
2022-12-04T05:17:22.057Z,4.46
2022-12-04T05:20:22.063Z,4.5
2022-12-04T05:23:22.066Z,4.47
2022-12-04T05:26:22.106Z,4.46
2022-12-04T05:29:22.081Z,4.46
2022-12-04T05:32:22.083Z,4.46
2022-12-04T05:35:22.084Z,4.46
2022-12-04T05:38:22.096Z,4.46
2022-12-04T05:41:22.098Z,4.46
2022-12-04T05:44:22.129Z,4.46
2022-12-04T05:47:22.101Z,4.46
2022-12-04T05:50:22.107Z,4.46
2022-12-04T05:53:22.117Z,4.46
2022-12-04T05:56:22.118Z,4.46
2022-12-04T05:59:22.131Z,4.46
2022-12-04T06:02:22.166Z,4.46
2022-12-04T06:05:22.142Z,4.46
2022-12-04T06:08:22.184Z,4.46
2022-12-04T06:11:22.153Z,4.46
2022-12-04T06:14:22.155Z,4.46
2022-12-04T06:17:22.165Z,4.46
2022-12-04T06:20:22.276Z,4.47
2022-12-04T06:23:22.186Z,4.47
2022-12-04T06:26:22.188Z,4.47
2022-12-04T06:29:22.192Z,4.47
2022-12-04T06:32:22.455Z,4.47
2022-12-04T06:35:22.211Z,4.47
2022-12-04T06:38:22.249Z,4.47
2022-12-04T06:41:22.224Z,4.47
2022-12-04T06:44:22.232Z,4.47
2022-12-04T06:47:22.243Z,4.47
2022-12-04T06:50:22.246Z,4.47
2022-12-04T06:53:22.249Z,4.47
2022-12-04T06:56:22.279Z,4.47
2022-12-04T06:59:22.260Z,4.51
2022-12-04T07:02:22.340Z,4.48
2022-12-04T07:05:22.267Z,4.51
2022-12-04T07:08:22.270Z,4.48
2022-12-04T07:11:22.277Z,4.49
2022-12-04T07:14:22.320Z,4.49
2022-12-04T07:17:22.289Z,4.49
2022-12-04T07:20:22.295Z,4.5
2022-12-04T07:23:22.300Z,4.5
2022-12-04T07:26:22.314Z,4.5
2022-12-04T07:29:22.317Z,4.5
2022-12-04T07:32:22.465Z,4.51
2022-12-04T07:35:22.327Z,4.51
2022-12-04T07:38:22.334Z,4.52
2022-12-04T07:41:22.339Z,4.52
2022-12-04T07:44:22.342Z,4.52
2022-12-04T07:47:22.344Z,4.52
2022-12-04T07:50:22.377Z,4.53
2022-12-04T07:53:22.350Z,4.53
2022-12-04T07:56:22.352Z,4.54
2022-12-04T07:59:22.365Z,4.54
2022-12-04T08:02:22.366Z,4.54
2022-12-04T08:05:22.371Z,4.54
2022-12-04T08:08:22.407Z,4.55
2022-12-04T08:11:22.382Z,4.55
2022-12-04T08:14:22.392Z,4.55
2022-12-04T08:17:22.410Z,4.56
2022-12-04T08:20:22.391Z,4.56
2022-12-04T08:23:22.395Z,4.59
2022-12-04T08:26:22.433Z,4.56
2022-12-04T08:29:22.405Z,4.59
2022-12-04T08:32:22.424Z,4.59
2022-12-04T08:35:22.415Z,4.6
2022-12-04T08:38:22.416Z,4.6
2022-12-04T08:41:22.836Z,4.6
2022-12-04T08:44:22.454Z,4.63
2022-12-04T08:47:22.436Z,4.63
2022-12-04T08:50:22.436Z,4.63
2022-12-04T08:53:22.444Z,4.63
2022-12-04T08:56:22.446Z,4.63
2022-12-04T08:59:22.448Z,4.63
2022-12-04T09:02:22.482Z,4.63
2022-12-04T09:05:22.468Z,4.63
2022-12-04T09:08:22.529Z,4.63
2022-12-04T09:11:22.476Z,4.63
2022-12-04T09:14:22.475Z,4.66
2022-12-04T09:17:22.483Z,4.63
2022-12-04T09:20:22.511Z,4.66
2022-12-04T09:23:22.495Z,4.67
2022-12-04T09:26:22.497Z,4.67
2022-12-04T09:29:22.500Z,4.67
2022-12-04T09:32:22.504Z,4.7
2022-12-04T09:35:22.509Z,4.67
2022-12-04T09:38:22.548Z,4.67
2022-12-04T09:41:22.520Z,4.7
2022-12-04T09:44:22.520Z,4.7
2022-12-04T09:47:22.527Z,4.7
2022-12-04T09:50:22.536Z,4.7
2022-12-04T09:53:22.539Z,4.73
2022-12-04T09:56:22.571Z,4.73
2022-12-04T09:59:22.551Z,4.73
2022-12-04T10:02:22.703Z,4.73
2022-12-04T10:05:22.560Z,4.73
2022-12-04T10:08:22.644Z,4.73
2022-12-04T10:11:23.343Z,4.76
2022-12-04T10:14:22.594Z,4.76
2022-12-04T10:17:23.393Z,4.76
2022-12-04T10:20:22.629Z,4.76
2022-12-04T10:23:22.577Z,4.77
2022-12-04T10:26:22.578Z,4.77
2022-12-04T10:29:22.584Z,4.77
2022-12-04T10:32:22.614Z,4.77
2022-12-04T10:35:22.592Z,4.8
2022-12-04T10:38:22.593Z,4.81
2022-12-04T10:41:22.598Z,4.8
2022-12-04T10:44:22.602Z,4.8
2022-12-04T10:47:22.602Z,4.8
2022-12-04T10:50:22.632Z,4.81
2022-12-04T10:53:22.612Z,4.8
2022-12-04T10:56:22.631Z,4.8
2022-12-04T10:59:22.623Z,4.8
2022-12-04T11:02:22.752Z,4.83
2022-12-04T11:05:22.789Z,4.83
2022-12-04T11:08:22.718Z,4.83
2022-12-04T11:11:22.634Z,4.83
2022-12-04T11:14:22.637Z,4.83
2022-12-04T11:17:22.638Z,4.83
2022-12-04T11:20:22.642Z,4.82
2022-12-04T11:23:22.649Z,4.83
2022-12-04T11:26:22.681Z,4.86
2022-12-04T11:29:22.659Z,4.86
2022-12-04T11:32:22.674Z,4.86
2022-12-04T11:35:22.667Z,4.86
2022-12-04T11:38:22.673Z,4.86
2022-12-04T11:41:22.676Z,4.86
2022-12-04T11:44:22.712Z,4.89
2022-12-04T11:47:22.685Z,4.89
2022-12-04T11:50:22.696Z,4.89
2022-12-04T11:53:22.694Z,4.89
2022-12-04T11:56:22.699Z,4.89
2022-12-04T11:59:22.708Z,4.89
2022-12-04T12:02:22.820Z,4.89
2022-12-04T12:05:22.711Z,4.89
2022-12-04T12:08:22.714Z,4.92
2022-12-04T12:11:22.718Z,4.92
2022-12-04T12:14:22.726Z,4.92
2022-12-04T12:17:22.726Z,4.92
2022-12-04T12:20:22.767Z,4.92
2022-12-04T12:23:22.743Z,4.92
2022-12-04T12:26:22.748Z,4.92
2022-12-04T12:29:22.757Z,4.92
2022-12-04T12:32:22.758Z,4.92
2022-12-04T12:35:22.764Z,4.92
2022-12-04T12:38:22.794Z,4.91
2022-12-04T12:41:22.781Z,4.91
2022-12-04T12:44:22.777Z,4.92
2022-12-04T12:47:22.783Z,4.92
2022-12-04T12:50:22.793Z,4.92
2022-12-04T12:53:22.797Z,4.89
2022-12-04T12:56:22.827Z,4.89
2022-12-04T12:59:22.807Z,4.89
2022-12-04T13:02:22.831Z,4.89
2022-12-04T13:05:22.819Z,4.89
2022-12-04T13:08:22.874Z,4.9
2022-12-04T13:11:22.821Z,4.9
2022-12-04T13:14:22.849Z,4.9
2022-12-04T13:17:22.824Z,4.9
2022-12-04T13:20:22.832Z,4.91
2022-12-04T13:23:22.826Z,4.94
2022-12-04T13:26:22.831Z,4.94
2022-12-04T13:29:22.832Z,4.94
2022-12-04T13:32:27.089Z,4.92
2022-12-04T13:35:22.836Z,4.95
2022-12-04T13:38:22.835Z,4.92
2022-12-04T13:41:22.846Z,4.92
2022-12-04T13:44:22.841Z,4.92
2022-12-04T13:47:22.848Z,4.92
2022-12-04T13:50:22.895Z,4.92
2022-12-04T13:53:22.878Z,4.92
2022-12-04T13:56:22.903Z,4.93
2022-12-04T13:59:22.900Z,4.93
2022-12-04T14:02:22.965Z,4.93
2022-12-04T14:05:22.916Z,4.93
2022-12-04T14:08:22.990Z,4.96
2022-12-04T14:11:22.924Z,4.93
2022-12-04T14:14:22.931Z,4.93
2022-12-04T14:17:22.940Z,4.94
2022-12-04T14:20:22.947Z,4.97
2022-12-04T14:23:22.966Z,4.97
2022-12-04T14:26:23.180Z,4.97
2022-12-04T14:29:22.962Z,4.97
2022-12-04T14:32:22.969Z,4.97
2022-12-04T14:35:22.982Z,4.97
2022-12-04T14:38:22.994Z,4.97
2022-12-04T14:41:22.996Z,4.97
2022-12-04T14:44:23.052Z,4.98
2022-12-04T14:47:23.003Z,4.97
2022-12-04T14:50:23.006Z,4.98
2022-12-04T14:53:23.013Z,4.97
2022-12-04T14:56:23.023Z,4.97
2022-12-04T14:59:23.023Z,4.97
2022-12-04T15:02:23.059Z,4.97
2022-12-04T15:05:23.037Z,4.98
2022-12-04T15:08:23.111Z,4.98
2022-12-04T15:11:23.038Z,4.98
2022-12-04T15:14:23.058Z,4.98
2022-12-04T15:17:23.054Z,4.98
2022-12-04T15:20:23.081Z,4.98
2022-12-04T15:23:23.063Z,4.98
2022-12-04T15:26:23.065Z,4.98
2022-12-04T15:29:23.066Z,4.98
2022-12-04T15:32:23.063Z,4.98
2022-12-04T15:35:23.069Z,4.98
2022-12-04T15:38:23.103Z,4.98
2022-12-04T15:41:23.075Z,4.98
2022-12-04T15:44:23.076Z,4.98
2022-12-04T15:47:23.082Z,4.98
2022-12-04T15:50:23.084Z,4.98
2022-12-04T15:53:23.092Z,4.98
2022-12-04T15:56:23.126Z,4.98
2022-12-04T15:59:23.093Z,4.99
2022-12-04T16:02:23.095Z,4.99
2022-12-04T16:05:23.106Z,4.98
2022-12-04T16:08:23.113Z,5.02
2022-12-04T16:11:23.125Z,5.02
2022-12-04T16:14:23.163Z,5.01
2022-12-04T16:17:23.143Z,5.02
2022-12-04T16:20:23.139Z,5.02
2022-12-04T16:23:23.144Z,5.02
2022-12-04T16:26:23.143Z,5.02
2022-12-04T16:29:23.150Z,5.02
2022-12-04T16:32:23.187Z,5.02
2022-12-04T16:35:23.162Z,5.06
2022-12-04T16:38:23.166Z,5.06
2022-12-04T16:41:23.169Z,5.02
2022-12-04T16:44:23.176Z,5.02
2022-12-04T16:47:23.183Z,5.06
2022-12-04T16:50:23.215Z,5.06
2022-12-04T16:53:23.244Z,5.06
2022-12-04T16:56:23.200Z,5.06
2022-12-04T16:59:23.200Z,5.06
2022-12-04T17:02:23.350Z,5.06
2022-12-04T17:05:23.249Z,5.06
2022-12-04T17:08:23.238Z,5.07
2022-12-04T17:11:23.215Z,5.1
2022-12-04T17:14:23.250Z,5.07
2022-12-04T17:17:23.223Z,5.1
2022-12-04T17:20:23.227Z,5.1
2022-12-04T17:23:23.237Z,5.1
2022-12-04T17:26:23.271Z,5.1
2022-12-04T17:29:23.241Z,5.1
2022-12-04T17:32:23.251Z,5.1
2022-12-04T17:35:23.254Z,5.1
2022-12-04T17:38:23.259Z,5.1
2022-12-04T17:41:23.268Z,5.1
2022-12-04T17:44:23.318Z,5.1
2022-12-04T17:47:23.279Z,5.1
2022-12-04T17:50:23.283Z,5.1
2022-12-04T17:53:23.281Z,5.1
2022-12-04T17:56:23.287Z,5.1
2022-12-04T17:59:23.292Z,5.1
2022-12-04T18:02:23.362Z,5.1
2022-12-04T18:05:23.302Z,5.1
2022-12-04T18:08:23.352Z,5.1
2022-12-04T18:11:23.307Z,5.1
2022-12-04T18:14:23.312Z,5.14
2022-12-04T18:17:23.312Z,5.14
2022-12-04T18:20:23.362Z,5.1
2022-12-04T18:23:23.320Z,5.1
2022-12-04T18:26:23.322Z,5.1
2022-12-04T18:29:23.326Z,5.1
2022-12-04T18:32:23.331Z,5.14
2022-12-04T18:35:23.337Z,5.14
2022-12-04T18:38:23.372Z,5.14
2022-12-04T18:41:23.342Z,5.14
2022-12-04T18:44:23.352Z,5.14
2022-12-04T18:47:23.350Z,5.14
2022-12-04T18:50:23.355Z,5.14
2022-12-04T18:53:23.360Z,5.14
2022-12-04T18:56:23.387Z,5.14
2022-12-04T18:59:23.360Z,5.14
2022-12-04T19:02:23.457Z,5.14
2022-12-04T19:05:23.364Z,5.14
2022-12-04T19:08:25.408Z,5.14
2022-12-04T19:11:23.367Z,5.14
2022-12-04T19:14:23.872Z,5.14
2022-12-04T19:17:23.385Z,5.14
2022-12-04T19:20:23.377Z,5.14
2022-12-04T19:23:23.382Z,5.14
2022-12-04T19:26:23.388Z,5.15
2022-12-04T19:29:23.385Z,5.15
2022-12-04T19:32:23.503Z,5.15
2022-12-04T19:35:23.395Z,5.15
2022-12-04T19:38:23.391Z,5.15
2022-12-04T19:41:23.395Z,5.14
2022-12-04T19:44:47.719Z,5.19
2022-12-04T19:47:23.404Z,5.15
2022-12-04T19:50:23.423Z,5.19
2022-12-04T19:53:23.396Z,5.19
2022-12-04T19:56:23.404Z,5.19
2022-12-04T19:59:23.405Z,5.19
2022-12-04T20:02:23.465Z,5.19
2022-12-04T20:05:23.410Z,5.19
2022-12-04T20:08:23.437Z,5.19
2022-12-04T20:11:23.406Z,5.19
2022-12-04T20:14:23.412Z,5.19
2022-12-04T20:17:23.412Z,5.19
2022-12-04T20:20:23.415Z,5.19
2022-12-04T20:23:23.408Z,5.19
2022-12-04T20:26:23.442Z,5.22
2022-12-04T20:29:23.412Z,5.19
2022-12-04T20:32:23.412Z,5.19
2022-12-04T20:35:23.425Z,5.19
2022-12-04T20:38:23.415Z,5.19
2022-12-04T20:41:23.417Z,5.19
2022-12-04T20:44:23.445Z,5.18
2022-12-04T20:47:23.416Z,5.22
2022-12-04T20:50:23.419Z,5.18
2022-12-04T20:53:23.431Z,5.18
2022-12-04T20:56:23.425Z,5.18
2022-12-04T20:59:23.425Z,5.22
2022-12-04T21:02:23.557Z,5.21
2022-12-04T21:05:23.435Z,5.21
2022-12-04T21:08:23.453Z,5.17
2022-12-04T21:11:23.429Z,5.21
2022-12-04T21:14:23.434Z,5.18
2022-12-04T21:17:23.439Z,5.18
2022-12-04T21:20:23.472Z,5.22
2022-12-04T21:23:23.439Z,5.22
2022-12-04T21:26:23.443Z,5.22
2022-12-04T21:29:23.446Z,5.22
2022-12-04T21:32:23.446Z,5.22
2022-12-04T21:35:23.446Z,5.22
2022-12-04T21:38:23.478Z,5.22
2022-12-04T21:41:23.446Z,5.22
2022-12-04T21:44:23.446Z,5.22
2022-12-04T21:47:23.451Z,5.22
2022-12-04T21:50:23.457Z,5.22
2022-12-04T21:53:23.458Z,5.22
2022-12-04T21:56:23.487Z,5.23
2022-12-04T21:59:23.461Z,5.23
2022-12-04T22:02:23.492Z,5.26
2022-12-04T22:05:23.461Z,5.26
2022-12-04T22:08:23.517Z,5.26
2022-12-04T22:11:23.464Z,5.26
2022-12-04T22:14:23.497Z,5.27
2022-12-04T22:17:23.463Z,5.26
2022-12-04T22:20:23.470Z,5.27
2022-12-04T22:23:23.468Z,5.27
2022-12-04T22:26:23.467Z,5.27
2022-12-04T22:29:51.781Z,5.27
2022-12-04T22:32:23.500Z,5.27
2022-12-04T22:35:23.472Z,5.27
2022-12-04T22:38:23.471Z,5.26
2022-12-04T22:41:23.476Z,5.27
2022-12-04T22:44:23.471Z,5.3
2022-12-04T22:47:23.475Z,5.26
2022-12-04T22:50:23.507Z,5.3
2022-12-04T22:53:23.480Z,5.26
2022-12-04T22:56:23.474Z,5.26
2022-12-04T22:59:23.479Z,5.3
2022-12-04T23:02:23.482Z,5.3
2022-12-04T23:05:23.537Z,5.26
2022-12-04T23:08:23.516Z,5.29
2022-12-04T23:11:23.487Z,5.26
2022-12-04T23:14:23.486Z,5.26
2022-12-04T23:17:23.491Z,5.29
2022-12-04T23:20:23.490Z,5.29
2022-12-04T23:23:23.493Z,5.29
2022-12-04T23:26:23.524Z,5.25
2022-12-04T23:29:51.265Z,5.25
2022-12-04T23:32:23.496Z,5.29
2022-12-04T23:35:23.503Z,5.29
2022-12-04T23:38:43.318Z,5.29
2022-12-04T23:43:06.932Z,5.29
2022-12-04T23:46:10.859Z,5.29
2022-12-04T23:49:04.740Z,5.29
2022-12-04T23:50:43.881Z,5.29
2022-12-04T23:52:22.923Z,5.29
2022-12-04T23:57:19.995Z,5.29
2022-12-04T23:59:55.945Z,5.29
